Time;durP1;ratioP1;P1;durP2;ratioP2;P2;SDS_P1;SDS_P2;PMS_P1;PMS_P2;Temp;Humidity;BMP_temperature;BMP_pressure;BME280_temperature;BME280_humidity;BME280_pressure;Samples;Min_cycle;Max_cycle;Signal;HPM_P1;HPM_P2
2021/12/06 00:00:21;;;;;;;3.97;2.70;;;;;;;6.50;62.13;100588.34;5011497;28;20075;-90
2021/12/06 00:02:47;;;;;;;7.38;3.65;;;;;;;6.25;62.82;100594.50;5039543;28;20478;-90
2021/12/06 00:05:15;;;;;;;6.68;3.22;;;;;;;6.44;61.64;100593.53;5030367;28;20041;-90
2021/12/06 00:07:41;;;;;;;3.75;2.95;;;;;;;6.52;61.40;100597.78;5034860;28;20028;-89
2021/12/06 00:10:08;;;;;;;4.15;2.40;;;;;;;6.63;60.71;100599.44;5038081;28;20060;-90
2021/12/06 00:12:34;;;;;;;4.22;3.50;;;;;;;6.34;61.87;100605.63;5025994;28;20489;-89
2021/12/06 00:15:00;;;;;;;4.50;2.55;;;;;;;6.31;62.43;100613.38;5061133;28;20028;-89
2021/12/06 00:17:25;;;;;;;5.63;3.17;;;;;;;6.48;62.40;100616.72;5042578;28;20063;-89
2021/12/06 00:19:51;;;;;;;6.18;3.20;;;;;;;6.56;62.02;100614.97;5021636;28;20056;-89
2021/12/06 00:22:23;;;;;;;4.10;2.50;;;;;;;6.50;61.63;100619.31;5035588;28;20193;-89
2021/12/06 00:24:54;;;;;;;7.22;3.55;;;;;;;6.66;60.36;100612.31;5012731;28;20029;-90
2021/12/06 00:27:20;;;;;;;7.07;2.72;;;;;;;6.24;62.03;100623.75;5054930;28;20034;-89
2021/12/06 00:29:46;;;;;;;4.88;3.20;;;;;;;6.41;61.67;100622.78;5053877;28;20410;-89
2021/12/06 00:32:12;;;;;;;5.03;2.88;;;;;;;6.52;60.59;100622.72;5047225;28;20028;-90
2021/12/06 00:34:39;;;;;;;5.13;2.88;;;;;;;6.70;60.09;100616.56;5030116;28;20033;-90
2021/12/06 00:37:54;;;;;;;5.15;3.05;;;;;;;6.53;60.52;100619.28;5055940;28;20498;-90
2021/12/06 00:39:57;;;;;;;6.05;2.88;;;;;;;6.55;60.54;100615.81;5033200;28;20037;-89
2021/12/06 00:42:27;;;;;;;4.63;2.85;;;;;;;6.47;60.19;100617.63;5030665;28;20029;-89
2021/12/06 00:44:53;;;;;;;4.65;3.38;;;;;;;6.41;60.46;100614.19;5055226;28;20031;-90
2021/12/06 00:47:21;;;;;;;4.70;2.78;;;;;;;6.53;59.50;100622.72;5040405;28;20030;-90
2021/12/06 00:49:47;;;;;;;4.38;2.60;;;;;;;6.20;60.51;100628.06;5026329;28;20041;-89
2021/12/06 00:52:15;;;;;;;6.03;3.22;;;;;;;5.87;61.28;100629.06;5046671;28;20067;-90
2021/12/06 00:54:41;;;;;;;7.22;3.17;;;;;;;5.74;61.18;100626.56;5056098;28;20121;-90
2021/12/06 00:57:09;;;;;;;5.70;2.97;;;;;;;5.92;61.29;100644.53;5032163;28;20080;-90
2021/12/06 00:59:36;;;;;;;4.30;3.10;;;;;;;6.25;60.16;100641.78;5015373;28;20025;-90
2021/12/06 01:02:02;;;;;;;5.53;3.40;;;;;;;6.03;59.75;100641.06;5028486;28;20033;-90
2021/12/06 01:04:35;;;;;;;6.07;3.20;;;;;;;5.92;59.80;100647.13;5043773;28;20052;-89
2021/12/06 01:07:01;;;;;;;5.43;2.75;;;;;;;5.71;59.53;100648.03;5036601;28;20034;-90
2021/12/06 01:09:26;;;;;;;5.38;3.10;;;;;;;5.69;59.58;100647.19;5044793;28;20125;-89
2021/12/06 01:11:52;;;;;;;10.00;3.67;;;;;;;5.50;59.94;100649.81;5030387;28;20036;-90
2021/12/06 01:14:18;;;;;;;7.90;3.08;;;;;;;5.44;60.66;100661.00;5058947;28;20367;-90
2021/12/06 01:16:44;;;;;;;6.20;3.13;;;;;;;5.20;61.75;100661.91;5049866;28;20117;-89
2021/12/06 01:19:10;;;;;;;6.78;3.50;;;;;;;5.48;60.22;100666.13;5041604;28;20073;-89
2021/12/06 01:22:04;;;;;;;6.57;3.08;;;;;;;5.13;61.53;100677.34;5012419;28;20033;-89
2021/12/06 01:24:38;;;;;;;5.32;2.60;;;;;;;5.11;61.61;100685.06;5038788;28;20081;-89
2021/12/06 01:32:04;;;;;;;6.15;2.97;;;;;;;5.92;60.23;100702.09;5041271;28;20037;-89
2021/12/06 01:39:43;;;;;;;5.65;3.38;;;;;;;5.90;59.69;100708.13;5043743;28;20067;-89
2021/12/06 01:42:09;;;;;;;9.68;4.20;;;;;;;5.96;59.72;100714.13;5020272;28;20052;-90
2021/12/06 01:44:36;;;;;;;5.50;3.55;;;;;;;5.80;60.42;100722.75;5043377;28;20040;-90
2021/12/06 01:47:13;;;;;;;7.18;3.42;;;;;;;5.90;60.81;100728.75;5030374;28;20041;-90
2021/12/06 01:49:49;;;;;;;6.53;3.58;;;;;;;6.15;59.88;100730.41;5040957;28;20486;-90
2021/12/06 01:52:24;;;;;;;6.57;3.60;;;;;;;6.09;59.74;100724.41;5064574;28;20036;-90
2021/12/06 01:54:50;;;;;;;5.35;3.42;;;;;;;5.75;60.58;100731.34;5003234;28;20033;-89
2021/12/06 01:57:16;;;;;;;6.00;4.05;;;;;;;5.60;61.06;100723.66;5008980;28;20053;-89
2021/12/06 01:59:42;;;;;;;6.57;3.67;;;;;;;5.72;59.50;100721.06;5044321;28;20058;-90
2021/12/06 02:02:08;;;;;;;8.25;4.28;;;;;;;5.40;59.65;100726.25;5045852;28;20029;-89
2021/12/06 02:04:36;;;;;;;6.32;3.97;;;;;;;5.35;60.01;100725.41;5030845;28;20116;-90
2021/12/06 02:07:04;;;;;;;5.30;2.97;;;;;;;5.48;59.05;100727.09;5051175;28;20033;-89
2021/12/06 02:09:30;;;;;;;6.15;3.20;;;;;;;5.44;58.42;100722.84;5048698;28;20033;-90
2021/12/06 02:11:59;;;;;;;5.32;2.88;;;;;;;5.50;58.10;100716.81;5031712;28;20037;-90
2021/12/06 02:17:12;;;;;;;4.22;3.05;;;;;;;5.46;58.53;100723.69;5061149;28;20052;-89
2021/12/06 02:19:45;;;;;;;5.65;3.08;;;;;;;5.40;57.97;100727.13;5043251;28;20045;-90
2021/12/06 02:22:26;;;;;;;4.55;3.03;;;;;;;5.22;57.81;100729.69;5032276;28;20041;-90
2021/12/06 02:24:54;;;;;;;4.53;2.90;;;;;;;5.00;58.69;100737.41;5042355;28;20108;-89
2021/12/06 02:27:22;;;;;;;6.15;3.10;;;;;;;5.29;56.88;100740.88;5045352;28;20031;-90
2021/12/06 02:29:54;;;;;;;4.30;2.80;;;;;;;5.15;57.67;100746.00;5046456;28;20119;-89
2021/12/06 02:32:20;;;;;;;6.13;3.10;;;;;;;5.22;56.64;100755.44;5038771;28;20022;-90
2021/12/06 02:34:50;;;;;;;4.38;3.15;;;;;;;5.24;57.49;100765.72;5054855;28;20094;-89
2021/12/06 02:37:20;;;;;;;6.50;4.07;;;;;;;5.26;57.93;100764.91;5051384;28;20029;-89
2021/12/06 02:39:46;;;;;;;5.00;3.45;;;;;;;4.76;59.20;100761.41;5044654;28;20071;-89
2021/12/06 02:42:15;;;;;;;6.43;3.20;;;;;;;4.63;59.36;100769.91;5020079;28;20654;-90
2021/12/06 02:44:43;;;;;;;5.25;3.35;;;;;;;5.02;58.88;100764.88;5035609;28;20068;-90
2021/12/06 02:47:09;;;;;;;4.43;3.05;;;;;;;5.23;57.38;100772.63;5022662;28;20079;-90
2021/12/06 02:49:34;;;;;;;4.97;3.40;;;;;;;4.84;59.02;100773.44;5022819;28;20026;-90
2021/12/06 02:52:00;;;;;;;7.18;3.17;;;;;;;4.73;58.78;100772.50;5035458;28;20048;-90
2021/12/06 02:54:27;;;;;;;6.88;3.55;;;;;;;4.93;58.64;100771.72;5043002;28;20624;-90
2021/12/06 02:56:56;;;;;;;6.53;3.30;;;;;;;4.91;58.41;100775.13;5029754;28;20040;-90
2021/12/06 02:59:25;;;;;;;4.85;2.80;;;;;;;4.85;58.74;100772.53;5037296;28;20061;-90
2021/12/06 03:02:00;;;;;;;4.55;3.13;;;;;;;4.49;59.41;100774.16;5046367;28;20031;-90
2021/12/06 03:04:25;;;;;;;5.13;3.35;;;;;;;4.59;59.60;100778.47;5026767;28;20106;-89
2021/12/06 03:06:55;;;;;;;6.10;3.53;;;;;;;4.44;59.92;100770.69;5014073;28;20080;-89
2021/12/06 03:09:27;;;;;;;4.43;3.17;;;;;;;4.41;59.85;100773.25;5049133;28;20032;-90
2021/12/06 03:12:03;;;;;;;4.90;3.15;;;;;;;4.95;57.77;100788.00;5014111;28;20030;-89
2021/12/06 03:14:35;;;;;;;6.00;2.90;;;;;;;4.87;58.25;100793.16;5044943;28;20087;-89
2021/12/06 03:17:04;;;;;;;6.18;3.10;;;;;;;5.00;57.25;100788.91;5042905;28;20116;-89
2021/12/06 03:19:30;;;;;;;5.93;2.97;;;;;;;4.75;57.94;100801.72;5041215;28;20397;-89
2021/12/06 03:21:56;;;;;;;5.80;3.42;;;;;;;5.02;58.11;100797.47;5044547;28;20062;-89
2021/12/06 03:24:22;;;;;;;6.57;3.13;;;;;;;4.86;59.09;100812.00;5049175;28;20048;-89
2021/12/06 03:26:48;;;;;;;6.93;4.28;;;;;;;4.58;60.09;100808.50;5039193;28;20029;-89
2021/12/06 03:29:14;;;;;;;4.18;2.75;;;;;;;4.55;60.79;100813.66;5061935;28;20382;-89
2021/12/06 03:31:40;;;;;;;6.65;3.67;;;;;;;4.53;61.19;100812.75;5020748;28;20033;-90
2021/12/06 03:34:07;;;;;;;6.85;3.40;;;;;;;4.53;61.30;100819.59;5038004;28;20052;-89
2021/12/06 03:36:36;;;;;;;5.53;3.47;;;;;;;4.73;61.02;100818.00;5019208;28;20071;-90
2021/12/06 03:39:10;;;;;;;6.15;3.42;;;;;;;4.82;60.93;100818.88;5021804;28;20070;-89
2021/12/06 03:41:36;;;;;;;5.78;3.40;;;;;;;4.79;61.13;100818.03;5038429;28;20009;-90
2021/12/06 03:44:02;;;;;;;4.68;3.30;;;;;;;5.03;60.78;100818.06;5046968;28;20044;-89
2021/12/06 03:46:30;;;;;;;6.47;3.67;;;;;;;4.99;60.31;100823.22;5027276;28;20112;-90
2021/12/06 03:48:56;;;;;;;5.30;3.15;;;;;;;5.03;60.74;100819.81;5052913;28;20072;-90
2021/12/06 03:51:22;;;;;;;5.78;3.38;;;;;;;5.09;60.07;100822.41;5034482;28;20065;-89
2021/12/06 03:53:47;;;;;;;4.40;3.13;;;;;;;4.94;60.98;100819.78;5050100;28;20078;-90
2021/12/06 03:56:13;;;;;;;5.53;3.50;;;;;;;5.08;60.40;100815.50;5030941;28;20120;-90
2021/12/06 03:58:40;;;;;;;5.93;3.80;;;;;;;4.84;60.59;100830.03;5043247;28;20215;-83
2021/12/06 04:01:06;;;;;;;8.38;3.60;;;;;;;5.10;59.96;100832.69;5053977;28;20041;-83
2021/12/06 04:03:35;;;;;;;8.32;3.80;;;;;;;5.36;59.84;100830.13;5051793;28;20040;-83
2021/12/06 04:06:02;;;;;;;6.40;4.50;;;;;;;5.47;60.15;100831.03;5017356;28;20645;-83
2021/12/06 04:08:27;;;;;;;7.55;4.65;;;;;;;4.99;60.93;100836.94;5053730;28;20026;-83
2021/12/06 04:10:55;;;;;;;6.72;4.60;;;;;;;4.74;62.06;100830.84;5037509;28;20136;-83
2021/12/06 04:13:21;;;;;;;8.40;4.72;;;;;;;4.72;62.53;100837.72;5041621;28;20065;-83
2021/12/06 04:15:47;;;;;;;9.48;4.78;;;;;;;5.11;61.91;100833.53;5039480;28;20106;-83
2021/12/06 04:18:12;;;;;;;7.78;5.38;;;;;;;4.88;62.36;100836.91;5009348;28;20050;-83
2021/12/06 04:20:38;;;;;;;9.02;5.13;;;;;;;4.96;61.63;100836.94;5054734;28;20038;-84
2021/12/06 04:23:06;;;;;;;7.60;4.60;;;;;;;4.79;62.13;100836.03;5045623;28;20486;-83
2021/12/06 04:25:35;;;;;;;7.50;4.82;;;;;;;4.78;61.83;100829.16;5032414;28;20424;-83
2021/12/06 04:28:05;;;;;;;7.32;4.43;;;;;;;4.61;61.75;100826.53;5053784;28;20037;-84
2021/12/06 04:30:32;;;;;;;7.85;4.55;;;;;;;5.09;60.75;100827.53;5045760;28;20108;-83
2021/12/06 04:32:58;;;;;;;7.47;4.65;;;;;;;4.78;61.33;100835.16;5048216;28;20063;-83
2021/12/06 04:35:25;;;;;;;6.63;4.63;;;;;;;4.81;60.99;100830.03;5046980;28;20148;-83
2021/12/06 04:37:51;;;;;;;10.10;4.72;;;;;;;4.54;62.11;100847.06;5052914;28;20037;-83
2021/12/06 04:40:17;;;;;;;9.05;5.75;;;;;;;4.75;61.77;100845.44;5051953;28;20035;-84
2021/12/06 04:42:43;;;;;;;10.20;5.03;;;;;;;5.01;62.00;100845.53;5044054;28;20041;-89
2021/12/06 04:45:11;;;;;;;10.70;4.95;;;;;;;5.08;60.59;100851.56;5046294;28;20176;-85
2021/12/06 04:47:37;;;;;;;8.63;5.35;;;;;;;4.82;61.92;100848.91;5052583;28;20083;-86
2021/12/06 04:50:07;;;;;;;8.43;5.35;;;;;;;4.88;60.32;100849.78;5052947;28;20051;-86
2021/12/06 04:52:32;;;;;;;7.72;5.13;;;;;;;5.03;60.23;100855.84;5046336;28;20751;-86
2021/12/06 04:55:13;;;;;;;8.98;5.53;;;;;;;4.76;61.43;100861.75;5044830;28;20041;-86
2021/12/06 04:57:43;;;;;;;10.23;6.30;;;;;;;4.85;61.55;100866.94;5047719;28;20030;-86
2021/12/06 05:00:26;;;;;;;9.32;5.97;;;;;;;5.20;60.49;100873.06;5050665;28;20049;-86
2021/12/06 05:02:52;;;;;;;10.45;5.97;;;;;;;4.91;61.31;100882.41;5049267;28;20076;-84
2021/12/06 05:05:46;;;;;;;10.60;6.85;;;;;;;4.81;61.44;100899.53;5045045;28;20075;-83
2021/12/06 05:08:21;;;;;;;12.45;6.55;;;;;;;4.95;61.68;100902.13;5044156;28;20045;-83
2021/12/06 05:10:48;;;;;;;12.00;7.50;;;;;;;4.83;62.54;100914.94;5049016;28;20072;-83
2021/12/06 05:13:14;;;;;;;17.70;7.72;;;;;;;4.78;62.70;100912.38;5050235;28;20029;-83
2021/12/06 05:15:39;;;;;;;20.15;7.93;;;;;;;5.02;63.06;100910.75;5050852;28;20126;-83
2021/12/06 05:18:05;;;;;;;17.52;8.50;;;;;;;5.00;63.05;100915.03;5030560;28;20397;-83
2021/12/06 05:20:32;;;;;;;21.27;9.23;;;;;;;4.97;62.98;100913.28;5070160;28;20056;-83
2021/12/06 05:22:57;;;;;;;18.92;8.80;;;;;;;4.95;63.04;100921.88;5039340;28;20383;-83
2021/12/06 05:25:25;;;;;;;19.95;9.93;;;;;;;5.12;62.60;100922.81;5047397;28;20119;-83
2021/12/06 05:27:51;;;;;;;21.60;10.05;;;;;;;5.18;62.72;100922.81;5044717;28;20037;-84
2021/12/06 05:30:20;;;;;;;21.85;10.15;;;;;;;4.89;64.03;100928.72;5042054;28;20040;-84
2021/12/06 05:32:46;;;;;;;21.63;9.77;;;;;;;4.76;64.78;100931.25;5055105;28;20025;-84
2021/12/06 05:35:12;;;;;;;18.80;9.30;;;;;;;5.18;63.71;100938.25;5030802;28;20040;-83
2021/12/06 05:37:46;;;;;;;26.83;10.68;;;;;;;5.19;63.34;100945.13;5023105;28;20063;-83
2021/12/06 05:40:17;;;;;;;23.63;10.70;;;;;;;4.99;64.71;100955.38;5034536;28;20132;-83
2021/12/06 05:42:43;;;;;;;21.58;10.05;;;;;;;4.96;64.38;100954.50;5050110;28;20037;-83
2021/12/06 05:45:10;;;;;;;24.02;11.15;;;;;;;4.93;64.65;100968.22;5046319;28;20033;-83
2021/12/06 05:47:36;;;;;;;22.73;9.60;;;;;;;5.07;64.80;100971.69;5034021;28;20028;-83
2021/12/06 05:50:03;;;;;;;24.05;9.88;;;;;;;5.16;64.78;100968.31;5039621;28;20549;-83
2021/12/06 05:52:28;;;;;;;22.58;10.25;;;;;;;5.27;64.20;100977.78;5032515;28;20047;-83
2021/12/06 05:54:54;;;;;;;22.55;10.50;;;;;;;5.31;63.87;100969.22;5050717;28;20036;-83
2021/12/06 05:57:20;;;;;;;24.35;11.25;;;;;;;5.19;64.36;100973.47;5035427;28;20489;-83
2021/12/06 05:59:46;;;;;;;24.25;10.77;;;;;;;5.18;63.70;100964.88;5053269;28;20486;-84
2021/12/06 06:02:12;;;;;;;25.90;12.10;;;;;;;5.24;64.75;100974.34;5058065;28;20040;-83
2021/12/06 06:04:38;;;;;;;29.70;13.93;;;;;;;5.08;65.21;100977.72;5034337;28;20079;-83
2021/12/06 06:07:04;;;;;;;29.65;13.27;;;;;;;5.28;64.22;100988.97;5047372;28;20128;-83
2021/12/06 06:09:30;;;;;;;22.80;9.85;;;;;;;5.20;65.04;100982.94;5046144;28;20044;-83
2021/12/06 06:11:56;;;;;;;26.60;10.18;;;;;;;5.24;64.39;100987.22;5042820;28;20393;-83
2021/12/06 06:14:21;;;;;;;27.67;11.32;;;;;;;5.14;64.71;100982.91;5053666;28;20021;-83
2021/12/06 06:16:49;;;;;;;25.15;10.23;;;;;;;5.32;64.26;100982.97;5038234;28;20033;-83
2021/12/06 06:19:19;;;;;;;24.13;10.27;;;;;;;5.40;63.59;100989.00;5034097;28;20041;-83
2021/12/06 06:21:46;;;;;;;23.98;11.30;;;;;;;5.50;63.14;100989.91;5039373;28;20047;-84
2021/12/06 06:24:12;;;;;;;23.58;11.50;;;;;;;5.23;64.12;100991.53;5050480;28;20037;-83
2021/12/06 06:26:38;;;;;;;28.88;11.05;;;;;;;5.54;63.34;100983.88;5046291;28;20026;-86
2021/12/06 06:29:04;;;;;;;30.00;11.52;;;;;;;5.63;62.63;100984.78;5039422;28;20104;-89
2021/12/06 06:31:29;;;;;;;23.00;10.10;;;;;;;5.54;63.25;100989.03;5036781;28;20138;-88
2021/12/06 06:33:58;;;;;;;39.65;10.55;;;;;;;5.34;63.67;100999.28;5048050;28;20037;-88
2021/12/06 06:36:23;;;;;;;21.85;9.35;;;;;;;5.43;63.98;101007.06;5043323;28;20047;-88
2021/12/06 06:38:49;;;;;;;19.45;8.65;;;;;;;5.48;62.60;101013.06;5035452;28;20107;-88
2021/12/06 06:41:14;;;;;;;16.75;8.00;;;;;;;5.55;61.95;101003.66;5048720;28;20497;-88
2021/12/06 06:43:40;;;;;;;16.77;7.97;;;;;;;5.53;62.06;101008.81;5055646;28;20463;-89
2021/12/06 06:46:06;;;;;;;17.92;8.48;;;;;;;5.41;62.86;101017.38;5032520;28;20044;-88
2021/12/06 06:48:32;;;;;;;14.50;7.88;;;;;;;5.35;63.07;101017.34;5047193;28;20075;-88
2021/12/06 06:50:58;;;;;;;13.13;7.10;;;;;;;5.29;62.67;101019.91;5043226;28;20046;-88
2021/12/06 06:53:24;;;;;;;13.73;7.05;;;;;;;5.44;61.84;101029.41;5046807;28;20032;-88
2021/12/06 06:55:49;;;;;;;10.35;6.88;;;;;;;5.58;61.38;101027.72;5034726;28;20029;-88
2021/12/06 06:58:15;;;;;;;14.02;6.75;;;;;;;5.35;61.95;101032.78;5053860;28;20068;-88
2021/12/06 07:00:40;;;;;;;12.93;6.95;;;;;;;5.36;62.68;101036.22;5028268;28;20433;-88
2021/12/06 07:03:08;;;;;;;13.48;7.78;;;;;;;5.52;61.64;101032.84;5046912;28;20040;-89
2021/12/06 07:05:36;;;;;;;15.75;6.80;;;;;;;5.47;61.68;101037.13;5070247;28;20033;-88
2021/12/06 07:08:02;;;;;;;13.73;5.70;;;;;;;5.50;61.60;101033.72;5055398;28;20032;-88
2021/12/06 07:10:27;;;;;;;12.40;6.40;;;;;;;5.68;61.13;101026.91;5052822;28;20489;-88
2021/12/06 07:12:55;;;;;;;11.70;5.78;;;;;;;5.63;61.58;101022.56;5045697;28;20112;-88
2021/12/06 07:15:27;;;;;;;12.38;6.20;;;;;;;5.49;62.07;101025.13;5041141;28;20037;-88
2021/12/06 07:17:54;;;;;;;14.30;6.35;;;;;;;5.37;62.59;101022.47;5046146;28;20119;-88
2021/12/06 07:20:20;;;;;;;11.60;6.53;;;;;;;5.65;61.44;101016.59;5053771;28;20029;-88
2021/12/06 07:22:48;;;;;;;12.25;6.22;;;;;;;5.79;60.65;101014.03;5049114;28;20084;-88
2021/12/06 07:25:16;;;;;;;12.65;6.45;;;;;;;5.75;61.44;101010.59;5033048;28;20498;-88
2021/12/06 07:27:43;;;;;;;10.52;5.55;;;;;;;5.64;61.09;101008.84;5037555;28;20041;-88
2021/12/06 07:30:11;;;;;;;14.63;5.90;;;;;;;5.77;60.70;101006.28;5046767;28;20587;-88
2021/12/06 07:32:37;;;;;;;10.52;5.90;;;;;;;5.39;62.21;101002.72;5024253;28;20127;-90
2021/12/06 07:35:04;;;;;;;10.85;6.13;;;;;;;5.53;61.20;100998.50;5063427;28;20186;-90
2021/12/06 07:37:30;;;;;;;9.57;5.38;;;;;;;5.68;60.64;100989.97;5015147;28;20033;-90
2021/12/06 07:39:55;;;;;;;7.90;4.60;;;;;;;5.66;60.31;100987.38;5051798;28;20524;-90
2021/12/06 07:42:21;;;;;;;8.80;5.40;;;;;;;5.50;60.82;100998.50;5057925;28;20045;-90
2021/12/06 07:44:48;;;;;;;9.88;5.43;;;;;;;5.46;60.93;101007.06;5041734;28;20028;-89
2021/12/06 07:47:14;;;;;;;11.93;5.70;;;;;;;5.32;62.15;101012.19;5051378;28;20033;-90
2021/12/06 07:49:43;;;;;;;11.40;6.38;;;;;;;5.21;61.83;101010.38;5052624;28;20032;-90
2021/12/06 07:52:09;;;;;;;11.63;6.50;;;;;;;5.32;61.87;101019.91;5060134;28;20095;-90
2021/12/06 07:54:34;;;;;;;13.15;6.43;;;;;;;5.28;62.83;101014.72;5040712;28;20043;-83
2021/12/06 07:57:01;;;;;;;10.65;6.97;;;;;;;5.25;62.36;101013.00;5052108;28;20028;-83
2021/12/06 07:59:27;;;;;;;10.68;6.00;;;;;;;5.32;62.31;101017.31;5052550;28;20656;-83
2021/12/06 08:01:52;;;;;;;12.23;6.40;;;;;;;5.21;62.48;101021.53;5028913;28;20048;-83
2021/12/06 08:04:18;;;;;;;9.93;6.07;;;;;;;5.37;62.20;101014.75;5045045;28;20088;-83
2021/12/06 08:06:44;;;;;;;12.18;6.57;;;;;;;5.28;62.16;101023.31;5059591;28;20086;-83
2021/12/06 08:09:11;;;;;;;10.68;6.47;;;;;;;5.40;61.85;101028.50;5024592;28;20445;-83
2021/12/06 08:11:36;;;;;;;10.73;6.65;;;;;;;5.27;62.45;101031.88;5036651;28;20029;-83
2021/12/06 08:14:03;;;;;;;12.38;6.75;;;;;;;5.23;62.95;101031.88;5034271;28;20049;-83
2021/12/06 08:16:41;;;;;;;15.52;7.15;;;;;;;5.29;63.06;101030.19;5053003;28;20044;-83
2021/12/06 08:19:07;;;;;;;11.65;6.32;;;;;;;5.25;62.92;101023.28;5055481;28;20048;-83
2021/12/06 08:21:33;;;;;;;15.27;6.93;;;;;;;5.51;62.51;101025.09;5046479;28;20049;-83
2021/12/06 08:24:00;;;;;;;11.50;6.50;;;;;;;5.28;62.64;101023.31;5039212;28;20091;-84
2021/12/06 08:26:29;;;;;;;13.77;6.50;;;;;;;5.09;63.42;101025.81;5044908;28;20108;-83
2021/12/06 08:28:56;;;;;;;11.88;6.70;;;;;;;5.32;62.56;101027.63;5028580;28;20045;-83
2021/12/06 08:31:22;;;;;;;10.95;7.05;;;;;;;5.42;62.44;101020.78;5068211;28;20057;-83
2021/12/06 08:33:53;;;;;;;12.25;6.20;;;;;;;5.23;62.21;101022.44;5059245;28;20084;-83
2021/12/06 08:36:20;;;;;;;10.75;5.88;;;;;;;5.54;61.12;101022.53;5048562;28;20029;-83
2021/12/06 08:38:47;;;;;;;13.35;7.25;;;;;;;5.32;62.33;101022.47;5048597;28;20071;-83
2021/12/06 08:41:16;;;;;;;13.73;6.72;;;;;;;5.26;62.61;101026.75;5041769;28;20061;-83
2021/12/06 08:43:43;;;;;;;12.77;7.68;;;;;;;5.26;62.29;101021.59;5045264;28;20033;-83
2021/12/06 08:51:20;;;;;;;13.13;7.72;;;;;;;5.09;63.58;101023.22;5045459;28;20532;-86
2021/12/06 08:53:47;;;;;;;11.00;6.10;;;;;;;5.22;63.61;101023.28;5034682;28;20026;-85
2021/12/06 08:56:14;;;;;;;10.15;5.75;;;;;;;5.43;62.67;101033.69;5030421;28;20075;-86
2021/12/06 08:58:40;;;;;;;11.35;5.93;;;;;;;5.40;62.41;101030.22;5036279;28;20033;-86
2021/12/06 09:01:06;;;;;;;10.43;5.85;;;;;;;5.08;63.69;101040.38;5030816;28;20561;-86
2021/12/06 09:03:34;;;;;;;8.70;5.32;;;;;;;5.22;63.38;101037.88;5032431;28;20128;-86
2021/12/06 09:06:01;;;;;;;8.13;4.75;;;;;;;5.10;63.67;101038.66;5016783;28;20029;-86
2021/12/06 09:08:27;;;;;;;10.18;5.10;;;;;;;5.32;62.44;101037.94;5032805;28;20029;-86
2021/12/06 09:10:53;;;;;;;11.20;5.20;;;;;;;5.44;62.47;101034.56;5039153;28;20497;-86
2021/12/06 09:13:20;;;;;;;10.55;5.13;;;;;;;5.38;62.87;101040.53;5032509;28;20033;-85
2021/12/06 09:15:46;;;;;;;9.18;5.25;;;;;;;5.49;62.68;101043.16;5041890;28;20040;-86
2021/12/06 09:18:12;;;;;;;9.13;4.88;;;;;;;5.35;62.91;101043.09;5033640;28;20041;-85
2021/12/06 09:20:40;;;;;;;8.68;4.78;;;;;;;5.30;63.10;101042.19;5038046;28;20021;-86
2021/12/06 09:23:06;;;;;;;9.23;4.93;;;;;;;5.33;63.24;101044.78;5035902;28;20045;-86
2021/12/06 09:25:34;;;;;;;8.63;5.32;;;;;;;5.52;62.78;101039.72;5039651;28;20497;-85
2021/12/06 09:28:00;;;;;;;9.43;5.03;;;;;;;5.48;62.91;101037.13;5037897;28;20056;-86
2021/12/06 09:30:29;;;;;;;10.77;5.43;;;;;;;5.43;63.51;101035.41;5032224;28;20497;-85
2021/12/06 09:32:58;;;;;;;9.05;5.10;;;;;;;5.66;62.19;101033.75;5033055;28;20113;-85
2021/12/06 09:35:27;;;;;;;10.85;5.10;;;;;;;5.55;62.77;101034.56;5034865;28;20021;-86
2021/12/06 09:37:55;;;;;;;9.63;4.40;;;;;;;5.62;63.22;101032.03;5037587;28;20043;-86
2021/12/06 09:40:21;;;;;;;7.97;4.70;;;;;;;5.75;62.12;101028.63;5060538;28;20522;-88
2021/12/06 09:42:47;;;;;;;8.38;4.65;;;;;;;5.67;62.77;101025.19;5034185;28;20043;-89
2021/12/06 09:45:18;;;;;;;9.55;5.13;;;;;;;5.77;62.97;101032.06;5032859;28;20044;-89
2021/12/06 09:47:50;;;;;;;10.23;5.80;;;;;;;5.68;63.28;101032.06;5034077;28;20047;-88
2021/12/06 09:50:23;;;;;;;9.02;5.32;;;;;;;5.84;62.25;101026.06;5053526;28;20496;-89
2021/12/06 09:52:49;;;;;;;14.10;6.20;;;;;;;5.75;62.41;101026.06;5056305;28;20123;-89
2021/12/06 09:55:15;;;;;;;12.25;6.18;;;;;;;5.78;63.30;101020.03;5056210;28;20033;-88
2021/12/06 09:57:40;;;;;;;9.57;5.65;;;;;;;5.85;62.84;101025.22;5064941;28;20036;-88
2021/12/06 10:00:08;;;;;;;12.20;5.88;;;;;;;5.63;64.03;101022.56;5048183;28;20127;-88
2021/12/06 10:02:34;;;;;;;7.95;5.03;;;;;;;5.78;63.34;101020.91;5056359;28;20033;-89
2021/12/06 10:05:00;;;;;;;8.98;4.97;;;;;;;5.83;63.00;101026.09;5057633;28;20036;-89
2021/12/06 10:07:26;;;;;;;12.23;5.47;;;;;;;5.86;63.06;101028.69;5061087;28;20052;-88
2021/12/06 10:09:53;;;;;;;11.20;5.70;;;;;;;5.83;63.54;101026.94;5035748;28;20041;-88
2021/12/06 10:12:22;;;;;;;11.13;5.65;;;;;;;6.05;62.67;101025.25;5047682;28;20124;-88
2021/12/06 10:14:48;;;;;;;11.63;5.85;;;;;;;5.95;62.89;101026.94;5054150;28;20025;-89
2021/12/06 10:17:16;;;;;;;9.15;5.47;;;;;;;6.07;62.07;101028.69;5057012;28;20028;-88
2021/12/06 10:19:43;;;;;;;13.25;6.43;;;;;;;5.93;62.40;101022.66;5048367;28;20516;-89
2021/12/06 10:22:09;;;;;;;10.10;6.10;;;;;;;5.90;63.11;101032.97;5044562;28;20040;-89
2021/12/06 10:24:35;;;;;;;10.27;5.60;;;;;;;6.10;61.97;101030.44;5050367;28;20041;-89
2021/12/06 10:27:07;;;;;;;8.48;5.18;;;;;;;5.96;63.04;101033.84;5049311;28;20041;-88
2021/12/06 10:29:39;;;;;;;13.40;5.25;;;;;;;5.94;62.76;101030.41;5059842;28;20099;-88
2021/12/06 10:32:17;;;;;;;14.43;6.63;;;;;;;6.20;62.47;101024.41;5034155;28;20041;-89
2021/12/06 10:34:54;;;;;;;11.85;5.95;;;;;;;6.09;61.74;101026.13;5029838;28;20060;-89
2021/12/06 10:37:47;;;;;;;13.93;6.57;;;;;;;5.91;62.86;101024.38;5018929;28;20149;-89
2021/12/06 10:40:23;;;;;;;12.93;7.18;;;;;;;6.02;62.71;101020.09;5028893;28;20127;-89
2021/12/06 10:42:51;;;;;;;11.52;5.82;;;;;;;6.01;62.28;101021.81;5033058;28;20037;-88
2021/12/06 10:45:21;;;;;;;16.25;7.13;;;;;;;6.03;62.20;101020.13;5033624;28;20560;-89
2021/12/06 10:48:06;;;;;;;14.13;6.95;;;;;;;6.01;62.75;101011.50;5036081;28;20404;-88
2021/12/06 10:50:33;;;;;;;12.02;6.63;;;;;;;5.98;63.04;101016.66;5037338;28;20136;-89
2021/12/06 10:53:01;;;;;;;12.93;7.28;;;;;;;5.91;62.93;101007.19;5037002;28;20040;-89
2021/12/06 10:55:30;;;;;;;13.05;6.10;;;;;;;6.03;62.53;101002.06;5026458;28;20037;-89
2021/12/06 10:58:07;;;;;;;11.35;6.38;;;;;;;6.03;62.13;100999.47;5025311;28;20412;-88
2021/12/06 11:00:37;;;;;;;12.15;6.95;;;;;;;6.03;63.06;101001.19;5034005;28;20110;-88
2021/12/06 11:03:05;;;;;;;12.98;6.80;;;;;;;5.94;63.35;101002.06;5037929;28;20053;-88
2021/12/06 11:05:34;;;;;;;11.98;6.72;;;;;;;6.06;62.71;100990.03;5062595;28;20028;-88
2021/12/06 11:08:16;;;;;;;10.38;6.15;;;;;;;6.07;62.74;100990.00;5047375;28;20044;-88
2021/12/06 11:10:55;;;;;;;13.00;6.35;;;;;;;5.94;63.73;100991.72;5049803;28;20043;-89
2021/12/06 11:13:25;;;;;;;12.07;5.85;;;;;;;5.96;62.99;100982.28;5054922;28;20033;-89
2021/12/06 11:16:04;;;;;;;17.23;6.07;;;;;;;5.98;62.92;100975.38;5048818;28;20041;-88
2021/12/06 11:18:39;;;;;;;10.80;5.75;;;;;;;6.00;63.33;100977.97;5053975;28;20045;-89
2021/12/06 11:21:15;;;;;;;11.32;6.22;;;;;;;6.14;62.72;100971.09;5039914;28;20120;-88
2021/12/06 11:23:57;;;;;;;12.30;6.10;;;;;;;6.09;62.23;100972.84;5022421;28;20029;-88
2021/12/06 11:26:23;;;;;;;12.25;6.15;;;;;;;6.20;63.06;100962.50;5026176;28;20025;-88
2021/12/06 11:28:49;;;;;;;12.02;5.82;;;;;;;6.18;62.14;100961.66;5046864;28;20032;-88
2021/12/06 11:31:17;;;;;;;11.30;5.03;;;;;;;6.36;62.27;100966.81;5048977;28;20029;-88
2021/12/06 11:33:42;;;;;;;10.55;5.53;;;;;;;6.30;61.67;100957.38;5047490;28;20025;-88
2021/12/06 11:36:23;;;;;;;10.25;5.68;;;;;;;6.37;60.99;100958.19;5048660;28;20029;-88
2021/12/06 11:38:49;;;;;;;14.70;6.53;;;;;;;6.39;60.44;100948.75;5045299;28;20124;-88
2021/12/06 11:41:15;;;;;;;12.70;6.22;;;;;;;6.40;60.97;100945.28;5048080;28;20037;-88
2021/12/06 11:43:41;;;;;;;13.13;5.55;;;;;;;6.29;62.48;100944.44;5055869;28;20041;-89
2021/12/06 11:46:09;;;;;;;10.48;5.65;;;;;;;6.19;62.15;100938.44;5046787;28;20037;-89
2021/12/06 11:48:39;;;;;;;9.98;5.88;;;;;;;6.24;61.54;100947.03;5046003;28;20041;-89
2021/12/06 11:51:11;;;;;;;14.25;6.05;;;;;;;6.16;63.09;100942.75;5047513;28;20060;-89